Frenchville, ME

12:53 PM EST on January 26, 2015 (GMT -0500)
K1FTK | Change Station
CLOSE
Current Station
Personal Weather Station
Location: Saint Agatha, ME
Elevation: 825 ft
Nearby Weather Stations
Active Advisory: Winter Storm Warning

Elev 825 ft 47.25 °N, 68.35 °W | Updated 2 minutes ago

Clear
Clear
5.1 °F
Feels Like 5 °F
N
3.0
Wind Variable Wind from WNW
Gusts 3.0 mph

Today
High -- | Low -- °F
--% Chance of Precip.
Yesterday
High -- | Low -- °F
Precip. -- in
7:06 AM 4:26 PM
Waxing Crescent, 45% visible
Pressure 30.18 in
Visibility 10.0 miles
Clouds Clear
Windchill 5 °F
Dew Point -6 °F
Humidity 58%
Rainfall 0.00 in
Snow Depth Not available.
UV 2 out of 12
Pollen .10 out of 12
Air Quality Not available.
Flu Activity Not available.
METAR KFVE 261653Z AUTO VRB06KT 10SM CLR M17/M24 A3011 RMK AO2 SLP219 T11721244

More Conditions Fewer Conditions

Pressure 30.18 in
Visibility 10.0 miles
Clouds Clear
Windchill 5 °F
Dew Point -6 °F
Humidity 58%
Rainfall 0.00 in
Snow Depth Not available.
UV 2 out of 12
Pollen .10 out of 12
Air Quality Not available.
Flu Activity Not available.
METAR KFVE 261653Z AUTO VRB06KT 10SM CLR M17/M24 A3011 RMK AO2 SLP219 T11721244

More Conditions Fewer Conditions

10-Day Weather Forecast

Almanac

Astronomy

Jan. 26, 2015 Rise Set
Actual Time
Civil Twilight
Nautical Twilight
Astronomical Twilight
Moon
Length of Visible Light
Length of Day
Tomorrow will be .
, % of the Moon is Illuminated

Today's Extremes

State Highs State Lows

Community

WunderPhotos

Upload Photos

1,790,301 photos uploaded!

WunderBlogs® & News

Nearby

Air Quality

  Air Quality AQ Index Pollutant
Not available.

Snow Depth

Station Depth Elevation

Earthquake Activity

City Distance Mag. Time & Date
Minimum magnitude displayed is 2.5.

Coastal Water Temperatures

Place Temperature

Nearby Weather Stations